sensor_id;sensor_type;location;lat;lon;timestamp;P1;durP1;ratioP1;P2;durP2;ratioP2
19193;SDS011;9729;52.296;13.260;2022-08-19T00:02:14;0.73;;;0.73;;
19193;SDS011;9729;52.296;13.260;2022-08-19T00:04:42;0.87;;;0.87;;
19193;SDS011;9729;52.296;13.260;2022-08-19T00:07:11;0.00;;;0.00;;
19193;SDS011;9729;52.296;13.260;2022-08-19T00:09:38;0.20;;;0.20;;
19193;SDS011;9729;52.296;13.260;2022-08-19T00:12:04;0.73;;;0.73;;
19193;SDS011;9729;52.296;13.260;2022-08-19T00:14:31;0.30;;;0.30;;
19193;SDS011;9729;52.296;13.260;2022-08-19T00:16:57;0.10;;;0.10;;
19193;SDS011;9729;52.296;13.260;2022-08-19T00:19:24;0.00;;;0.00;;
19193;SDS011;9729;52.296;13.260;2022-08-19T00:21:52;0.63;;;0.50;;
19193;SDS011;9729;52.296;13.260;2022-08-19T00:24:21;0.40;;;0.40;;
19193;SDS011;9729;52.296;13.260;2022-08-19T00:26:47;0.77;;;0.77;;
19193;SDS011;9729;52.296;13.260;2022-08-19T00:29:16;0.10;;;0.10;;
19193;SDS011;9729;52.296;13.260;2022-08-19T00:31:44;1.90;;;1.17;;
19193;SDS011;9729;52.296;13.260;2022-08-19T00:34:11;0.20;;;0.20;;
19193;SDS011;9729;52.296;13.260;2022-08-19T00:36:38;0.73;;;0.73;;
19193;SDS011;9729;52.296;13.260;2022-08-19T00:39:07;1.60;;;0.57;;
19193;SDS011;9729;52.296;13.260;2022-08-19T00:41:33;1.20;;;0.40;;
19193;SDS011;9729;52.296;13.260;2022-08-19T00:44:01;0.53;;;0.53;;
19193;SDS011;9729;52.296;13.260;2022-08-19T00:46:29;0.67;;;0.67;;
19193;SDS011;9729;52.296;13.260;2022-08-19T00:48:56;0.10;;;0.10;;
19193;SDS011;9729;52.296;13.260;2022-08-19T00:51:29;1.40;;;1.30;;
19193;SDS011;9729;52.296;13.260;2022-08-19T00:53:57;0.23;;;0.23;;
19193;SDS011;9729;52.296;13.260;2022-08-19T00:56:27;0.37;;;0.33;;
19193;SDS011;9729;52.296;13.260;2022-08-19T00:58:53;0.63;;;0.63;;
19193;SDS011;9729;52.296;13.260;2022-08-19T01:01:21;0.20;;;0.20;;
19193;SDS011;9729;52.296;13.260;2022-08-19T01:03:47;0.30;;;0.30;;
19193;SDS011;9729;52.296;13.260;2022-08-19T01:06:14;0.63;;;0.63;;
19193;SDS011;9729;52.296;13.260;2022-08-19T01:08:40;1.47;;;1.10;;
19193;SDS011;9729;52.296;13.260;2022-08-19T01:11:06;0.00;;;0.00;;
19193;SDS011;9729;52.296;13.260;2022-08-19T01:13:34;0.17;;;0.17;;
19193;SDS011;9729;52.296;13.260;2022-08-19T01:16:03;0.70;;;0.70;;
19193;SDS011;9729;52.296;13.260;2022-08-19T01:18:32;0.10;;;0.10;;
19193;SDS011;9729;52.296;13.260;2022-08-19T01:21:07;0.20;;;0.20;;
19193;SDS011;9729;52.296;13.260;2022-08-19T01:23:39;0.30;;;0.30;;
19193;SDS011;9729;52.296;13.260;2022-08-19T01:26:09;2.77;;;1.50;;
19193;SDS011;9729;52.296;13.260;2022-08-19T01:28:37;1.60;;;1.50;;
19193;SDS011;9729;52.296;13.260;2022-08-19T01:31:04;0.67;;;0.50;;
19193;SDS011;9729;52.296;13.260;2022-08-19T01:33:31;4.97;;;0.93;;
19193;SDS011;9729;52.296;13.260;2022-08-19T01:36:03;0.20;;;0.20;;
19193;SDS011;9729;52.296;13.260;2022-08-19T01:38:30;0.60;;;0.60;;
19193;SDS011;9729;52.296;13.260;2022-08-19T01:41:01;0.20;;;0.20;;
19193;SDS011;9729;52.296;13.260;2022-08-19T01:43:28;0.20;;;0.20;;
19193;SDS011;9729;52.296;13.260;2022-08-19T01:45:54;0.83;;;0.83;;
19193;SDS011;9729;52.296;13.260;2022-08-19T01:48:20;1.40;;;0.57;;
19193;SDS011;9729;52.296;13.260;2022-08-19T01:50:48;0.30;;;0.30;;
19193;SDS011;9729;52.296;13.260;2022-08-19T01:53:15;0.17;;;0.17;;
19193;SDS011;9729;52.296;13.260;2022-08-19T01:55:42;0.93;;;0.90;;
19193;SDS011;9729;52.296;13.260;2022-08-19T01:58:12;0.40;;;0.40;;
19193;SDS011;9729;52.296;13.260;2022-08-19T02:00:41;0.63;;;0.63;;
19193;SDS011;9729;52.296;13.260;2022-08-19T02:03:10;3.03;;;1.70;;
19193;SDS011;9729;52.296;13.260;2022-08-19T02:05:36;1.80;;;1.07;;
19193;SDS011;9729;52.296;13.260;2022-08-19T02:08:03;2.03;;;0.60;;
19193;SDS011;9729;52.296;13.260;2022-08-19T02:10:30;1.37;;;1.27;;
19193;SDS011;9729;52.296;13.260;2022-08-19T02:12:56;1.03;;;1.03;;
19193;SDS011;9729;52.296;13.260;2022-08-19T02:15:24;0.27;;;0.27;;
19193;SDS011;9729;52.296;13.260;2022-08-19T02:17:51;0.60;;;0.60;;
19193;SDS011;9729;52.296;13.260;2022-08-19T02:20:18;0.27;;;0.27;;
19193;SDS011;9729;52.296;13.260;2022-08-19T02:22:44;0.83;;;0.83;;
19193;SDS011;9729;52.296;13.260;2022-08-19T02:25:12;0.37;;;0.37;;
19193;SDS011;9729;52.296;13.260;2022-08-19T02:27:39;0.27;;;0.27;;
19193;SDS011;9729;52.296;13.260;2022-08-19T02:30:07;0.50;;;0.50;;
19193;SDS011;9729;52.296;13.260;2022-08-19T02:32:36;0.77;;;0.77;;
19193;SDS011;9729;52.296;13.260;2022-08-19T02:35:03;0.10;;;0.10;;
19193;SDS011;9729;52.296;13.260;2022-08-19T02:37:30;0.43;;;0.43;;
19193;SDS011;9729;52.296;13.260;2022-08-19T02:40:15;0.10;;;0.10;;
19193;SDS011;9729;52.296;13.260;2022-08-19T02:42:42;0.57;;;0.57;;
19193;SDS011;9729;52.296;13.260;2022-08-19T02:45:10;1.00;;;0.97;;
19193;SDS011;9729;52.296;13.260;2022-08-19T02:47:38;0.20;;;0.20;;
19193;SDS011;9729;52.296;13.260;2022-08-19T02:50:05;0.70;;;0.70;;
19193;SDS011;9729;52.296;13.260;2022-08-19T02:52:32;0.20;;;0.20;;
19193;SDS011;9729;52.296;13.260;2022-08-19T02:54:59;1.40;;;0.60;;
19193;SDS011;9729;52.296;13.260;2022-08-19T02:57:26;0.77;;;0.77;;
19193;SDS011;9729;52.296;13.260;2022-08-19T02:59:52;1.80;;;1.70;;
19193;SDS011;9729;52.296;13.260;2022-08-19T03:02:19;0.77;;;0.70;;
19193;SDS011;9729;52.296;13.260;2022-08-19T03:04:47;1.80;;;1.07;;
19193;SDS011;9729;52.296;13.260;2022-08-19T03:07:14;0.17;;;0.17;;
19193;SDS011;9729;52.296;13.260;2022-08-19T03:09:40;0.50;;;0.50;;
19193;SDS011;9729;52.296;13.260;2022-08-19T03:12:07;1.13;;;1.07;;
19193;SDS011;9729;52.296;13.260;2022-08-19T03:14:35;1.57;;;1.47;;
19193;SDS011;9729;52.296;13.260;2022-08-19T03:17:02;0.13;;;0.13;;
19193;SDS011;9729;52.296;13.260;2022-08-19T03:19:30;0.93;;;0.93;;
19193;SDS011;9729;52.296;13.260;2022-08-19T03:21:58;0.30;;;0.30;;
19193;SDS011;9729;52.296;13.260;2022-08-19T03:24:25;0.90;;;0.90;;
19193;SDS011;9729;52.296;13.260;2022-08-19T03:26:52;0.20;;;0.20;;
19193;SDS011;9729;52.296;13.260;2022-08-19T03:29:22;0.10;;;0.10;;
19193;SDS011;9729;52.296;13.260;2022-08-19T03:31:50;1.80;;;0.73;;
19193;SDS011;9729;52.296;13.260;2022-08-19T03:34:18;0.77;;;0.77;;
19193;SDS011;9729;52.296;13.260;2022-08-19T03:36:45;3.40;;;0.77;;
19193;SDS011;9729;52.296;13.260;2022-08-19T03:39:15;1.03;;;0.90;;
19193;SDS011;9729;52.296;13.260;2022-08-19T03:41:43;0.43;;;0.43;;
19193;SDS011;9729;52.296;13.260;2022-08-19T03:44:10;0.63;;;0.63;;
19193;SDS011;9729;52.296;13.260;2022-08-19T03:46:37;0.37;;;0.37;;
19193;SDS011;9729;52.296;13.260;2022-08-19T03:49:03;0.00;;;0.00;;
19193;SDS011;9729;52.296;13.260;2022-08-19T03:51:34;1.80;;;0.83;;
19193;SDS011;9729;52.296;13.260;2022-08-19T03:54:03;0.43;;;0.43;;
19193;SDS011;9729;52.296;13.260;2022-08-19T03:56:32;1.03;;;0.70;;
19193;SDS011;9729;52.296;13.260;2022-08-19T03:58:59;0.10;;;0.10;;
19193;SDS011;9729;52.296;13.260;2022-08-19T04:01:27;0.20;;;0.20;;
19193;SDS011;9729;52.296;13.260;2022-08-19T04:03:55;0.23;;;0.23;;
19193;SDS011;9729;52.296;13.260;2022-08-19T04:06:22;0.20;;;0.20;;
19193;SDS011;9729;52.296;13.260;2022-08-19T04:08:51;0.20;;;0.20;;
19193;SDS011;9729;52.296;13.260;2022-08-19T04:11:20;2.23;;;2.03;;
19193;SDS011;9729;52.296;13.260;2022-08-19T04:13:50;0.50;;;0.50;;
19193;SDS011;9729;52.296;13.260;2022-08-19T04:16:17;1.50;;;1.40;;
19193;SDS011;9729;52.296;13.260;2022-08-19T04:18:44;0.50;;;0.50;;
19193;SDS011;9729;52.296;13.260;2022-08-19T04:21:15;1.10;;;1.03;;
19193;SDS011;9729;52.296;13.260;2022-08-19T04:23:44;0.63;;;0.63;;
19193;SDS011;9729;52.296;13.260;2022-08-19T04:26:12;1.50;;;1.03;;
19193;SDS011;9729;52.296;13.260;2022-08-19T04:28:39;1.60;;;1.50;;
19193;SDS011;9729;52.296;13.260;2022-08-19T04:31:11;0.83;;;0.83;;
19193;SDS011;9729;52.296;13.260;2022-08-19T04:33:39;0.10;;;0.10;;
19193;SDS011;9729;52.296;13.260;2022-08-19T04:36:05;1.43;;;1.23;;
19193;SDS011;9729;52.296;13.260;2022-08-19T04:38:32;0.40;;;0.40;;
19193;SDS011;9729;52.296;13.260;2022-08-19T04:40:59;0.30;;;0.30;;
19193;SDS011;9729;52.296;13.260;2022-08-19T04:43:44;1.07;;;1.07;;
19193;SDS011;9729;52.296;13.260;2022-08-19T04:46:13;0.20;;;0.20;;
19193;SDS011;9729;52.296;13.260;2022-08-19T04:48:41;3.80;;;1.77;;
19193;SDS011;9729;52.296;13.260;2022-08-19T04:51:09;0.53;;;0.53;;
19193;SDS011;9729;52.296;13.260;2022-08-19T04:53:38;0.30;;;0.30;;
19193;SDS011;9729;52.296;13.260;2022-08-19T04:56:06;0.40;;;0.40;;
19193;SDS011;9729;52.296;13.260;2022-08-19T04:58:35;13.23;;;0.63;;
19193;SDS011;9729;52.296;13.260;2022-08-19T05:01:03;17.43;;;1.90;;
19193;SDS011;9729;52.296;13.260;2022-08-19T05:03:32;0.20;;;0.20;;
19193;SDS011;9729;52.296;13.260;2022-08-19T05:06:00;0.53;;;0.50;;
19193;SDS011;9729;52.296;13.260;2022-08-19T05:08:30;0.27;;;0.27;;
19193;SDS011;9729;52.296;13.260;2022-08-19T05:10:56;0.47;;;0.47;;
19193;SDS011;9729;52.296;13.260;2022-08-19T05:13:23;0.10;;;0.10;;
19193;SDS011;9729;52.296;13.260;2022-08-19T05:15:53;0.83;;;0.83;;
19193;SDS011;9729;52.296;13.260;2022-08-19T05:18:20;0.10;;;0.10;;
19193;SDS011;9729;52.296;13.260;2022-08-19T05:21:06;0.60;;;0.60;;
19193;SDS011;9729;52.296;13.260;2022-08-19T05:23:51;0.10;;;0.10;;
19193;SDS011;9729;52.296;13.260;2022-08-19T05:26:18;0.03;;;0.03;;
19193;SDS011;9729;52.296;13.260;2022-08-19T05:28:44;0.10;;;0.10;;
19193;SDS011;9729;52.296;13.260;2022-08-19T05:31:10;0.20;;;0.20;;
19193;SDS011;9729;52.296;13.260;2022-08-19T05:33:39;0.00;;;0.00;;
19193;SDS011;9729;52.296;13.260;2022-08-19T05:36:07;0.53;;;0.53;;
19193;SDS011;9729;52.296;13.260;2022-08-19T05:38:34;0.23;;;0.23;;
19193;SDS011;9729;52.296;13.260;2022-08-19T05:41:01;0.10;;;0.10;;
19193;SDS011;9729;52.296;13.260;2022-08-19T05:43:33;0.00;;;0.00;;
19193;SDS011;9729;52.296;13.260;2022-08-19T05:46:00;17.23;;;0.93;;
19193;SDS011;9729;52.296;13.260;2022-08-19T05:48:26;2.33;;;0.53;;
19193;SDS011;9729;52.296;13.260;2022-08-19T05:50:53;0.00;;;0.00;;
19193;SDS011;9729;52.296;13.260;2022-08-19T05:53:20;0.10;;;0.10;;
19193;SDS011;9729;52.296;13.260;2022-08-19T05:55:47;0.27;;;0.27;;
19193;SDS011;9729;52.296;13.260;2022-08-19T05:58:13;3.40;;;0.67;;
19193;SDS011;9729;52.296;13.260;2022-08-19T06:00:40;0.00;;;0.00;;
19193;SDS011;9729;52.296;13.260;2022-08-19T06:03:08;0.47;;;0.47;;
19193;SDS011;9729;52.296;13.260;2022-08-19T06:05:35;0.20;;;0.20;;
19193;SDS011;9729;52.296;13.260;2022-08-19T06:08:03;0.50;;;0.50;;
19193;SDS011;9729;52.296;13.260;2022-08-19T06:10:33;0.20;;;0.20;;
19193;SDS011;9729;52.296;13.260;2022-08-19T06:13:01;0.20;;;0.20;;
19193;SDS011;9729;52.296;13.260;2022-08-19T06:15:30;2.73;;;1.13;;
19193;SDS011;9729;52.296;13.260;2022-08-19T06:17:57;0.10;;;0.10;;
19193;SDS011;9729;52.296;13.260;2022-08-19T06:20:23;0.10;;;0.10;;
19193;SDS011;9729;52.296;13.260;2022-08-19T06:22:49;1.80;;;0.87;;
19193;SDS011;9729;52.296;13.260;2022-08-19T06:25:16;0.67;;;0.67;;
19193;SDS011;9729;52.296;13.260;2022-08-19T06:27:45;0.10;;;0.10;;
19193;SDS011;9729;52.296;13.260;2022-08-19T06:30:11;1.30;;;0.60;;
19193;SDS011;9729;52.296;13.260;2022-08-19T06:32:39;0.40;;;0.40;;
19193;SDS011;9729;52.296;13.260;2022-08-19T06:35:06;0.40;;;0.33;;
19193;SDS011;9729;52.296;13.260;2022-08-19T06:37:33;1.00;;;0.77;;
19193;SDS011;9729;52.296;13.260;2022-08-19T06:39:59;0.00;;;0.00;;
19193;SDS011;9729;52.296;13.260;2022-08-19T06:42:26;0.63;;;0.43;;
19193;SDS011;9729;52.296;13.260;2022-08-19T06:44:54;0.20;;;0.20;;
19193;SDS011;9729;52.296;13.260;2022-08-19T06:47:21;0.43;;;0.43;;
19193;SDS011;9729;52.296;13.260;2022-08-19T06:49:47;0.83;;;0.83;;
19193;SDS011;9729;52.296;13.260;2022-08-19T06:52:14;0.20;;;0.20;;
19193;SDS011;9729;52.296;13.260;2022-08-19T06:54:41;0.20;;;0.20;;
19193;SDS011;9729;52.296;13.260;2022-08-19T06:57:07;1.23;;;0.60;;
19193;SDS011;9729;52.296;13.260;2022-08-19T06:59:38;1.03;;;0.57;;
19193;SDS011;9729;52.296;13.260;2022-08-19T07:02:07;0.57;;;0.40;;
19193;SDS011;9729;52.296;13.260;2022-08-19T07:04:34;1.40;;;0.60;;
19193;SDS011;9729;52.296;13.260;2022-08-19T07:07:03;0.23;;;0.23;;
19193;SDS011;9729;52.296;13.260;2022-08-19T07:09:32;0.00;;;0.00;;
19193;SDS011;9729;52.296;13.260;2022-08-19T07:11:58;9.80;;;1.00;;
19193;SDS011;9729;52.296;13.260;2022-08-19T07:14:26;0.40;;;0.40;;
19193;SDS011;9729;52.296;13.260;2022-08-19T07:16:53;0.67;;;0.67;;
19193;SDS011;9729;52.296;13.260;2022-08-19T07:19:23;0.37;;;0.37;;
19193;SDS011;9729;52.296;13.260;2022-08-19T07:21:51;1.67;;;1.03;;
19193;SDS011;9729;52.296;13.260;2022-08-19T07:24:18;0.10;;;0.10;;
19193;SDS011;9729;52.296;13.260;2022-08-19T07:26:45;2.03;;;1.23;;
19193;SDS011;9729;52.296;13.260;2022-08-19T07:29:12;0.20;;;0.20;;
19193;SDS011;9729;52.296;13.260;2022-08-19T07:31:41;0.30;;;0.30;;
19193;SDS011;9729;52.296;13.260;2022-08-19T07:34:08;0.75;;;0.73;;
19193;SDS011;9729;52.296;13.260;2022-08-19T07:36:38;2.92;;;1.42;;
19193;SDS011;9729;52.296;13.260;2022-08-19T07:39:10;0.40;;;0.40;;
19193;SDS011;9729;52.296;13.260;2022-08-19T07:41:38;0.30;;;0.23;;
19193;SDS011;9729;52.296;13.260;2022-08-19T07:44:04;1.17;;;0.83;;
19193;SDS011;9729;52.296;13.260;2022-08-19T07:46:34;0.37;;;0.37;;
19193;SDS011;9729;52.296;13.260;2022-08-19T07:49:03;2.93;;;1.10;;
19193;SDS011;9729;52.296;13.260;2022-08-19T07:51:30;0.27;;;0.27;;
19193;SDS011;9729;52.296;13.260;2022-08-19T07:53:57;0.10;;;0.10;;
19193;SDS011;9729;52.296;13.260;2022-08-19T07:56:25;1.15;;;1.15;;
19193;SDS011;9729;52.296;13.260;2022-08-19T07:58:51;0.50;;;0.50;;
19193;SDS011;9729;52.296;13.260;2022-08-19T08:01:20;3.30;;;1.30;;
19193;SDS011;9729;52.296;13.260;2022-08-19T08:03:49;0.35;;;0.35;;
19193;SDS011;9729;52.296;13.260;2022-08-19T08:06:34;0.40;;;0.40;;
19193;SDS011;9729;52.296;13.260;2022-08-19T08:09:20;0.30;;;0.30;;
19193;SDS011;9729;52.296;13.260;2022-08-19T08:11:49;0.20;;;0.20;;
19193;SDS011;9729;52.296;13.260;2022-08-19T08:14:19;0.50;;;0.50;;
19193;SDS011;9729;52.296;13.260;2022-08-19T08:16:47;1.17;;;1.13;;
19193;SDS011;9729;52.296;13.260;2022-08-19T08:19:14;0.83;;;0.77;;
19193;SDS011;9729;52.296;13.260;2022-08-19T08:21:41;0.20;;;0.20;;
19193;SDS011;9729;52.296;13.260;2022-08-19T08:24:07;0.10;;;0.10;;
19193;SDS011;9729;52.296;13.260;2022-08-19T08:26:35;0.67;;;0.67;;
19193;SDS011;9729;52.296;13.260;2022-08-19T08:29:02;8.00;;;7.10;;
19193;SDS011;9729;52.296;13.260;2022-08-19T08:31:29;25.00;;;20.40;;
19193;SDS011;9729;52.296;13.260;2022-08-19T08:33:55;22.37;;;19.83;;
19193;SDS011;9729;52.296;13.260;2022-08-19T08:36:21;22.43;;;20.03;;
19193;SDS011;9729;52.296;13.260;2022-08-19T08:38:49;23.40;;;20.67;;
19193;SDS011;9729;52.296;13.260;2022-08-19T08:41:18;22.83;;;20.47;;
19193;SDS011;9729;52.296;13.260;2022-08-19T08:43:54;26.30;;;19.33;;
19193;SDS011;9729;52.296;13.260;2022-08-19T08:46:24;21.77;;;19.40;;
19193;SDS011;9729;52.296;13.260;2022-08-19T08:48:54;23.30;;;20.67;;
19193;SDS011;9729;52.296;13.260;2022-08-19T08:51:24;26.23;;;18.73;;
19193;SDS011;9729;52.296;13.260;2022-08-19T08:53:52;22.13;;;19.60;;
19193;SDS011;9729;52.296;13.260;2022-08-19T08:56:19;24.33;;;20.50;;
19193;SDS011;9729;52.296;13.260;2022-08-19T08:58:48;24.38;;;19.92;;
19193;SDS011;9729;52.296;13.260;2022-08-19T09:01:19;23.70;;;20.98;;
19193;SDS011;9729;52.296;13.260;2022-08-19T09:03:45;24.17;;;20.87;;
19193;SDS011;9729;52.296;13.260;2022-08-19T09:06:14;22.83;;;20.40;;
19193;SDS011;9729;52.296;13.260;2022-08-19T09:08:45;23.00;;;20.60;;
19193;SDS011;9729;52.296;13.260;2022-08-19T09:11:31;23.63;;;19.90;;
19193;SDS011;9729;52.296;13.260;2022-08-19T09:14:06;23.73;;;21.17;;
19193;SDS011;9729;52.296;13.260;2022-08-19T09:16:38;23.50;;;21.00;;
19193;SDS011;9729;52.296;13.260;2022-08-19T09:19:06;23.27;;;20.90;;
19193;SDS011;9729;52.296;13.260;2022-08-19T09:21:33;23.53;;;21.03;;
19193;SDS011;9729;52.296;13.260;2022-08-19T09:24:00;25.40;;;22.80;;
19193;SDS011;9729;52.296;13.260;2022-08-19T09:26:26;23.73;;;21.33;;
19193;SDS011;9729;52.296;13.260;2022-08-19T09:28:53;25.37;;;22.63;;
19193;SDS011;9729;52.296;13.260;2022-08-19T09:31:20;22.73;;;20.43;;
19193;SDS011;9729;52.296;13.260;2022-08-19T09:33:50;28.07;;;21.30;;
19193;SDS011;9729;52.296;13.260;2022-08-19T09:36:18;25.53;;;22.73;;
19193;SDS011;9729;52.296;13.260;2022-08-19T09:38:47;23.20;;;20.80;;
19193;SDS011;9729;52.296;13.260;2022-08-19T09:41:16;23.53;;;21.07;;
19193;SDS011;9729;52.296;13.260;2022-08-19T09:43:44;29.10;;;21.30;;
19193;SDS011;9729;52.296;13.260;2022-08-19T09:46:11;23.40;;;20.93;;
19193;SDS011;9729;52.296;13.260;2022-08-19T09:48:38;23.47;;;20.93;;
19193;SDS011;9729;52.296;13.260;2022-08-19T09:51:07;22.10;;;19.90;;
19193;SDS011;9729;52.296;13.260;2022-08-19T09:53:37;23.70;;;21.27;;
19193;SDS011;9729;52.296;13.260;2022-08-19T09:56:04;20.93;;;18.33;;
19193;SDS011;9729;52.296;13.260;2022-08-19T09:58:31;20.45;;;18.33;;
19193;SDS011;9729;52.296;13.260;2022-08-19T10:00:58;23.02;;;18.05;;
19193;SDS011;9729;52.296;13.260;2022-08-19T10:03:26;20.98;;;18.00;;
19193;SDS011;9729;52.296;13.260;2022-08-19T10:05:53;19.60;;;17.70;;
19193;SDS011;9729;52.296;13.260;2022-08-19T10:08:22;19.25;;;17.20;;
19193;SDS011;9729;52.296;13.260;2022-08-19T10:10:51;22.30;;;18.70;;
19193;SDS011;9729;52.296;13.260;2022-08-19T10:13:19;22.23;;;17.90;;
19193;SDS011;9729;52.296;13.260;2022-08-19T10:15:50;21.55;;;19.25;;
19193;SDS011;9729;52.296;13.260;2022-08-19T10:18:18;24.00;;;18.45;;
19193;SDS011;9729;52.296;13.260;2022-08-19T10:20:47;32.33;;;23.92;;
19193;SDS011;9729;52.296;13.260;2022-08-19T10:23:14;27.08;;;24.25;;
19193;SDS011;9729;52.296;13.260;2022-08-19T10:25:42;28.80;;;25.80;;
19193;SDS011;9729;52.296;13.260;2022-08-19T10:28:09;29.17;;;26.00;;
19193;SDS011;9729;52.296;13.260;2022-08-19T10:30:37;28.55;;;25.55;;
19193;SDS011;9729;52.296;13.260;2022-08-19T10:33:03;29.60;;;25.75;;
19193;SDS011;9729;52.296;13.260;2022-08-19T10:35:30;34.40;;;29.77;;
19193;SDS011;9729;52.296;13.260;2022-08-19T10:37:56;38.22;;;33.08;;
19193;SDS011;9729;52.296;13.260;2022-08-19T10:40:24;36.00;;;29.80;;
19193;SDS011;9729;52.296;13.260;2022-08-19T10:42:54;32.27;;;28.20;;
19193;SDS011;9729;52.296;13.260;2022-08-19T10:45:20;39.60;;;32.43;;
19193;SDS011;9729;52.296;13.260;2022-08-19T10:47:50;37.60;;;29.93;;
19193;SDS011;9729;52.296;13.260;2022-08-19T10:50:16;35.77;;;30.43;;
19193;SDS011;9729;52.296;13.260;2022-08-19T10:53:03;40.43;;;32.67;;
19193;SDS011;9729;52.296;13.260;2022-08-19T10:55:29;38.53;;;31.67;;
19193;SDS011;9729;52.296;13.260;2022-08-19T10:58:16;39.30;;;33.43;;
19193;SDS011;9729;52.296;13.260;2022-08-19T11:00:51;36.97;;;31.50;;
19193;SDS011;9729;52.296;13.260;2022-08-19T11:03:18;41.27;;;33.97;;
19193;SDS011;9729;52.296;13.260;2022-08-19T11:05:44;42.60;;;34.80;;
19193;SDS011;9729;52.296;13.260;2022-08-19T11:08:10;40.50;;;34.83;;
19193;SDS011;9729;52.296;13.260;2022-08-19T11:10:37;40.67;;;32.63;;
19193;SDS011;9729;52.296;13.260;2022-08-19T11:13:07;44.80;;;36.43;;
19193;SDS011;9729;52.296;13.260;2022-08-19T11:15:35;48.57;;;37.67;;
19193;SDS011;9729;52.296;13.260;2022-08-19T11:18:02;51.50;;;38.60;;
19193;SDS011;9729;52.296;13.260;2022-08-19T11:20:28;49.23;;;38.10;;
19193;SDS011;9729;52.296;13.260;2022-08-19T11:22:56;46.13;;;38.40;;
19193;SDS011;9729;52.296;13.260;2022-08-19T11:25:22;53.23;;;42.57;;
19193;SDS011;9729;52.296;13.260;2022-08-19T11:27:48;50.57;;;40.60;;
19193;SDS011;9729;52.296;13.260;2022-08-19T11:30:16;47.53;;;38.40;;
19193;SDS011;9729;52.296;13.260;2022-08-19T11:32:44;48.10;;;36.77;;
19193;SDS011;9729;52.296;13.260;2022-08-19T11:35:11;46.20;;;35.53;;
19193;SDS011;9729;52.296;13.260;2022-08-19T11:37:37;40.13;;;33.03;;
19193;SDS011;9729;52.296;13.260;2022-08-19T11:40:05;39.30;;;33.13;;
19193;SDS011;9729;52.296;13.260;2022-08-19T11:42:32;40.50;;;31.10;;
19193;SDS011;9729;52.296;13.260;2022-08-19T11:45:16;40.93;;;32.67;;
19193;SDS011;9729;52.296;13.260;2022-08-19T11:47:44;46.67;;;35.30;;
19193;SDS011;9729;52.296;13.260;2022-08-19T11:50:11;44.77;;;33.73;;
19193;SDS011;9729;52.296;13.260;2022-08-19T11:52:38;43.90;;;33.67;;
19193;SDS011;9729;52.296;13.260;2022-08-19T11:55:04;42.20;;;34.07;;
19193;SDS011;9729;52.296;13.260;2022-08-19T11:57:32;45.80;;;36.10;;
19193;SDS011;9729;52.296;13.260;2022-08-19T11:59:58;40.60;;;34.37;;
19193;SDS011;9729;52.296;13.260;2022-08-19T12:02:24;42.93;;;34.73;;
19193;SDS011;9729;52.296;13.260;2022-08-19T12:04:52;43.20;;;32.20;;
19193;SDS011;9729;52.296;13.260;2022-08-19T12:07:19;43.07;;;33.20;;
19193;SDS011;9729;52.296;13.260;2022-08-19T12:09:45;36.90;;;31.97;;
19193;SDS011;9729;52.296;13.260;2022-08-19T12:12:12;40.67;;;32.63;;
19193;SDS011;9729;52.296;13.260;2022-08-19T12:14:38;42.13;;;34.23;;
19193;SDS011;9729;52.296;13.260;2022-08-19T12:17:05;40.90;;;31.33;;
19193;SDS011;9729;52.296;13.260;2022-08-19T12:19:33;45.20;;;32.23;;
19193;SDS011;9729;52.296;13.260;2022-08-19T12:22:03;42.43;;;33.27;;
19193;SDS011;9729;52.296;13.260;2022-08-19T12:24:31;41.17;;;31.90;;
19193;SDS011;9729;52.296;13.260;2022-08-19T12:26:57;43.40;;;32.47;;
19193;SDS011;9729;52.296;13.260;2022-08-19T12:29:26;35.83;;;31.30;;
19193;SDS011;9729;52.296;13.260;2022-08-19T12:31:56;37.83;;;30.90;;
19193;SDS011;9729;52.296;13.260;2022-08-19T12:34:26;37.50;;;29.43;;
19193;SDS011;9729;52.296;13.260;2022-08-19T12:36:54;36.47;;;29.77;;
19193;SDS011;9729;52.296;13.260;2022-08-19T12:39:22;33.87;;;29.17;;
19193;SDS011;9729;52.296;13.260;2022-08-19T12:41:49;63.67;;;45.40;;
19193;SDS011;9729;52.296;13.260;2022-08-19T12:44:16;63.97;;;50.37;;
19193;SDS011;9729;52.296;13.260;2022-08-19T12:46:42;68.37;;;50.00;;
19193;SDS011;9729;52.296;13.260;2022-08-19T12:49:08;47.67;;;40.73;;
19193;SDS011;9729;52.296;13.260;2022-08-19T12:51:35;46.63;;;31.67;;
19193;SDS011;9729;52.296;13.260;2022-08-19T12:54:01;40.43;;;29.40;;
19193;SDS011;9729;52.296;13.260;2022-08-19T12:56:30;32.00;;;27.00;;
19193;SDS011;9729;52.296;13.260;2022-08-19T12:59:00;35.60;;;27.63;;
19193;SDS011;9729;52.296;13.260;2022-08-19T13:01:27;31.63;;;26.40;;
19193;SDS011;9729;52.296;13.260;2022-08-19T13:03:57;34.07;;;27.03;;
19193;SDS011;9729;52.296;13.260;2022-08-19T13:06:24;34.57;;;27.37;;
19193;SDS011;9729;52.296;13.260;2022-08-19T13:08:50;32.67;;;27.67;;
19193;SDS011;9729;52.296;13.260;2022-08-19T13:11:19;34.47;;;26.17;;
19193;SDS011;9729;52.296;13.260;2022-08-19T13:13:51;32.77;;;25.20;;
19193;SDS011;9729;52.296;13.260;2022-08-19T13:16:20;31.07;;;25.33;;
19193;SDS011;9729;52.296;13.260;2022-08-19T13:18:47;28.13;;;25.03;;
19193;SDS011;9729;52.296;13.260;2022-08-19T13:21:17;29.10;;;23.73;;
19193;SDS011;9729;52.296;13.260;2022-08-19T13:23:45;32.17;;;25.50;;
19193;SDS011;9729;52.296;13.260;2022-08-19T13:26:13;28.00;;;24.67;;
19193;SDS011;9729;52.296;13.260;2022-08-19T13:28:39;28.40;;;23.80;;
19193;SDS011;9729;52.296;13.260;2022-08-19T13:31:26;29.83;;;22.70;;
19193;SDS011;9729;52.296;13.260;2022-08-19T13:34:14;29.43;;;24.43;;
19193;SDS011;9729;52.296;13.260;2022-08-19T13:36:40;29.63;;;23.97;;
19193;SDS011;9729;52.296;13.260;2022-08-19T13:39:07;28.00;;;23.30;;
19193;SDS011;9729;52.296;13.260;2022-08-19T13:41:35;25.43;;;22.67;;
19193;SDS011;9729;52.296;13.260;2022-08-19T13:44:02;25.87;;;22.87;;
19193;SDS011;9729;52.296;13.260;2022-08-19T13:46:30;24.30;;;21.17;;
19193;SDS011;9729;52.296;13.260;2022-08-19T13:48:56;22.77;;;20.37;;
19193;SDS011;9729;52.296;13.260;2022-08-19T13:51:22;24.80;;;21.87;;
19193;SDS011;9729;52.296;13.260;2022-08-19T13:53:49;26.10;;;19.50;;
19193;SDS011;9729;52.296;13.260;2022-08-19T13:56:16;22.37;;;19.87;;
19193;SDS011;9729;52.296;13.260;2022-08-19T13:58:44;27.27;;;20.40;;
19193;SDS011;9729;52.296;13.260;2022-08-19T14:01:11;22.40;;;20.03;;
19193;SDS011;9729;52.296;13.260;2022-08-19T14:03:39;25.00;;;20.50;;
19193;SDS011;9729;52.296;13.260;2022-08-19T14:06:05;22.60;;;19.17;;
19193;SDS011;9729;52.296;13.260;2022-08-19T14:08:32;23.03;;;19.37;;
19193;SDS011;9729;52.296;13.260;2022-08-19T14:10:58;22.53;;;18.60;;
19193;SDS011;9729;52.296;13.260;2022-08-19T14:13:25;23.77;;;18.67;;
19193;SDS011;9729;52.296;13.260;2022-08-19T14:15:51;22.87;;;18.93;;
19193;SDS011;9729;52.296;13.260;2022-08-19T14:18:18;24.83;;;18.87;;
19193;SDS011;9729;52.296;13.260;2022-08-19T14:20:45;19.67;;;17.57;;
19193;SDS011;9729;52.296;13.260;2022-08-19T14:23:12;21.40;;;18.23;;
19193;SDS011;9729;52.296;13.260;2022-08-19T14:25:39;22.77;;;18.70;;
19193;SDS011;9729;52.296;13.260;2022-08-19T14:28:06;20.97;;;18.30;;
19193;SDS011;9729;52.296;13.260;2022-08-19T14:30:33;20.37;;;17.53;;
19193;SDS011;9729;52.296;13.260;2022-08-19T14:33:02;19.37;;;17.10;;
19193;SDS011;9729;52.296;13.260;2022-08-19T14:35:30;17.80;;;16.03;;
19193;SDS011;9729;52.296;13.260;2022-08-19T14:38:01;26.50;;;17.63;;
19193;SDS011;9729;52.296;13.260;2022-08-19T14:40:28;23.40;;;17.53;;
19193;SDS011;9729;52.296;13.260;2022-08-19T14:42:56;20.10;;;16.83;;